Time;durP1;ratioP1;P1;durP2;ratioP2;P2;SDS_P1;SDS_P2;PMS_P1;PMS_P2;Temp;Humidity;BMP_temperature;BMP_pressure;BME280_temperature;BME280_humidity;BME280_pressure;Samples;Min_cycle;Max_cycle;Signal;HPM_P1;HPM_P2
2022/04/24 00:01:24;;;;;;;13.10;8.27;;;9.40;99.90;;;;;;5089980;28;20044;-61
2022/04/24 00:03:50;;;;;;;12.75;7.80;;;9.20;99.90;;;;;;5090681;28;20043;-61
2022/04/24 00:06:15;;;;;;;11.98;6.80;;;9.10;99.90;;;;;;5090415;28;20492;-61
2022/04/24 00:08:41;;;;;;;11.30;7.60;;;9.70;99.90;;;;;;5090399;28;20052;-61
2022/04/24 00:11:06;;;;;;;12.35;8.13;;;9.80;99.90;;;;;;5091174;28;20036;-61
2022/04/24 00:13:38;;;;;;;11.13;7.47;;;9.40;99.90;;;;;;5091282;28;20043;-61
2022/04/24 00:16:05;;;;;;;11.52;7.60;;;9.10;99.90;;;;;;5091060;28;20135;-61
2022/04/24 00:18:30;;;;;;;11.68;7.53;;;9.00;99.90;;;;;;5091382;28;20044;-61
2022/04/24 00:20:56;;;;;;;11.15;7.78;;;9.20;99.90;;;;;;5091677;28;20085;-61
2022/04/24 00:23:22;;;;;;;11.20;7.63;;;9.40;99.90;;;;;;5091827;28;20497;-61
2022/04/24 00:25:47;;;;;;;11.68;7.20;;;9.30;99.90;;;;;;5106834;28;20043;-61
2022/04/24 00:28:13;;;;;;;10.18;6.60;;;9.30;99.90;;;;;;5090398;28;20040;-61
2022/04/24 00:30:39;;;;;;;10.75;7.20;;;9.20;99.90;;;;;;5092104;28;20047;-61
2022/04/24 00:33:05;;;;;;;10.05;7.05;;;9.00;99.90;;;;;;5091035;28;20385;-61
2022/04/24 00:35:31;;;;;;;12.70;7.32;;;9.20;99.90;;;;;;5091425;28;20047;-61
2022/04/24 00:37:57;;;;;;;10.15;6.93;;;9.10;99.90;;;;;;5090376;28;20044;-61
2022/04/24 00:40:23;;;;;;;10.07;6.82;;;9.10;99.90;;;;;;5090924;28;20051;-61
2022/04/24 00:42:49;;;;;;;10.60;6.47;;;9.10;99.90;;;;;;5091795;28;20054;-61
2022/04/24 00:45:15;;;;;;;11.75;7.03;;;9.30;99.90;;;;;;5095305;28;20044;-61
2022/04/24 00:47:44;;;;;;;12.23;7.75;;;9.20;99.90;;;;;;5093272;28;20131;-61
2022/04/24 00:50:10;;;;;;;11.80;6.88;;;8.60;99.90;;;;;;5093798;28;20044;-61
2022/04/24 00:52:37;;;;;;;10.18;6.80;;;9.00;99.90;;;;;;5095001;28;20124;-61
2022/04/24 00:55:04;;;;;;;11.13;7.05;;;9.00;99.90;;;;;;5095035;28;20395;-61
2022/04/24 00:57:30;;;;;;;11.23;7.57;;;;;;;;;;5094781;28;20036;-61
2022/04/24 00:59:56;;;;;;;10.70;7.65;;;9.00;99.90;;;;;;5095590;28;20040;-61
2022/04/24 01:02:22;;;;;;;10.77;7.05;;;8.50;99.90;;;;;;5093910;28;20063;-61
2022/04/24 01:04:47;;;;;;;12.30;7.05;;;8.80;99.90;;;;;;5095011;28;20071;-61
2022/04/24 01:07:13;;;;;;;10.02;6.80;;;9.00;99.90;;;;;;5093556;28;20055;-61
2022/04/24 01:09:39;;;;;;;10.43;7.07;;;8.50;99.90;;;;;;5094275;28;20055;-61
2022/04/24 01:12:06;;;;;;;9.48;6.80;;;8.30;99.90;;;;;;5093896;28;20048;-61
2022/04/24 01:14:33;;;;;;;10.27;7.07;;;8.40;99.90;;;;;;5093341;28;20115;-61
2022/04/24 01:17:04;;;;;;;10.20;6.40;;;8.80;99.90;;;;;;5092976;28;20097;-61
2022/04/24 01:19:30;;;;;;;9.35;6.32;;;;;;;;;;5094462;28;20040;-61
2022/04/24 01:21:56;;;;;;;9.80;6.53;;;8.60;99.90;;;;;;5093465;28;20373;-60
2022/04/24 01:24:26;;;;;;;9.90;7.22;;;8.80;99.90;;;;;;5076942;28;20496;-61
2022/04/24 01:26:52;;;;;;;9.90;6.93;;;8.40;99.90;;;;;;5094715;28;20040;-61
2022/04/24 01:29:18;;;;;;;10.65;6.97;;;8.70;99.90;;;;;;5093564;28;20362;-61
2022/04/24 01:31:45;;;;;;;9.52;6.10;;;8.50;99.90;;;;;;5094517;28;20032;-61
2022/04/24 01:34:12;;;;;;;10.43;6.68;;;10.70;99.90;;;;;;5093125;28;20116;-61
2022/04/24 01:36:38;;;;;;;11.50;7.82;;;8.80;99.90;;;;;;5093750;28;20113;-61
2022/04/24 01:39:06;;;;;;;9.75;6.70;;;8.60;99.90;;;;;;5110504;28;20488;-61
2022/04/24 01:41:33;;;;;;;10.60;6.45;;;8.90;99.90;;;;;;5094907;28;20050;-61
2022/04/24 01:43:58;;;;;;;9.75;7.03;;;8.40;99.90;;;;;;5093902;28;20031;-61
2022/04/24 01:46:24;;;;;;;9.23;6.20;;;8.20;99.90;;;;;;5093903;28;20507;-61
2022/04/24 01:48:50;;;;;;;10.70;7.63;;;8.50;99.90;;;;;;5094286;28;20127;-61
2022/04/24 01:51:16;;;;;;;11.32;6.75;;;8.10;99.90;;;;;;5093494;28;20089;-61
2022/04/24 01:53:43;;;;;;;10.25;6.95;;;9.30;99.90;;;;;;5092591;28;20435;-61
2022/04/24 01:56:09;;;;;;;10.75;6.05;;;8.30;99.90;;;;;;5110552;28;20487;-61
2022/04/24 01:58:36;;;;;;;11.85;7.22;;;8.70;99.90;;;;;;5093229;28;20085;-61
2022/04/24 02:01:03;;;;;;;9.70;6.63;;;8.60;99.90;;;;;;5092481;28;20048;-61
2022/04/24 02:03:29;;;;;;;11.65;7.60;;;8.50;99.90;;;;;;5093871;28;20484;-61
2022/04/24 02:05:56;;;;;;;11.32;7.95;;;10.40;99.90;;;;;;5093884;28;20040;-61
2022/04/24 02:08:22;;;;;;;10.25;7.25;;;8.70;99.90;;;;;;5092365;28;20040;-61
2022/04/24 02:10:49;;;;;;;12.07;7.30;;;8.50;99.90;;;;;;5094171;28;20092;-61
2022/04/24 02:13:15;;;;;;;11.27;6.70;;;9.30;99.90;;;;;;5091613;28;20044;-61
2022/04/24 02:15:41;;;;;;;12.25;7.78;;;8.60;99.90;;;;;;5092542;28;20050;-61
2022/04/24 02:18:06;;;;;;;14.27;7.72;;;8.70;99.90;;;;;;5094045;28;20035;-61
2022/04/24 02:20:32;;;;;;;13.20;8.32;;;7.90;99.90;;;;;;5092312;28;20071;-61
2022/04/24 02:22:58;;;;;;;11.32;6.72;;;8.20;99.90;;;;;;5093793;28;20040;-61
2022/04/24 02:25:25;;;;;;;12.18;8.32;;;7.70;99.90;;;;;;5091548;28;20505;-61
2022/04/24 02:27:53;;;;;;;10.93;7.55;;;8.20;99.90;;;;;;5091742;28;20507;-61
2022/04/24 02:30:25;;;;;;;11.23;7.65;;;8.10;99.90;;;;;;5092139;28;20072;-61
2022/04/24 02:32:51;;;;;;;12.48;8.30;;;8.00;99.90;;;;;;5091524;28;20039;-61
2022/04/24 02:35:17;;;;;;;12.63;7.57;;;8.10;99.90;;;;;;5076550;28;20031;-61
2022/04/24 02:37:44;;;;;;;10.93;7.15;;;7.50;99.90;;;;;;5091570;28;20093;-61
2022/04/24 02:40:11;;;;;;;11.95;7.82;;;8.00;99.90;;;;;;5092945;28;20050;-61
2022/04/24 02:42:37;;;;;;;12.20;7.88;;;7.80;99.90;;;;;;5093088;28;20048;-61
2022/04/24 02:45:04;;;;;;;10.93;7.65;;;8.00;99.90;;;;;;5091911;28;20097;-61
2022/04/24 02:47:30;;;;;;;10.60;7.00;;;8.10;99.90;;;;;;5090602;28;20044;-61
2022/04/24 02:49:56;;;;;;;11.10;7.10;;;9.40;99.90;;;;;;5093110;28;20047;-61
2022/04/24 02:52:21;;;;;;;12.88;7.82;;;7.90;99.90;;;;;;5091539;28;20396;-61
2022/04/24 02:54:47;;;;;;;13.73;7.35;;;7.90;99.90;;;;;;5091143;28;20119;-61
2022/04/24 02:57:12;;;;;;;11.48;7.00;;;7.60;99.90;;;;;;5092732;28;20048;-61
2022/04/24 02:59:42;;;;;;;10.80;7.57;;;8.10;99.90;;;;;;5092909;28;20032;-61
2022/04/24 03:02:09;;;;;;;10.88;7.15;;;8.20;99.90;;;;;;5091968;28;20047;-61
2022/04/24 03:04:35;;;;;;;11.57;7.32;;;7.90;99.90;;;;;;5091083;28;20036;-61
2022/04/24 03:07:01;;;;;;;10.90;6.90;;;7.80;99.90;;;;;;5091308;28;20070;-61
2022/04/24 03:09:26;;;;;;;13.88;7.57;;;8.00;99.90;;;;;;5090285;28;20051;-61
2022/04/24 03:11:52;;;;;;;10.23;6.63;;;8.00;99.90;;;;;;5091392;28;20044;-61
2022/04/24 03:14:17;;;;;;;11.18;6.80;;;8.30;99.90;;;;;;5092487;28;20032;-61
2022/04/24 03:16:43;;;;;;;11.13;6.93;;;8.10;99.90;;;;;;5073841;28;20074;-61
2022/04/24 03:19:09;;;;;;;11.68;7.47;;;8.00;99.90;;;;;;5091438;28;20049;-61
2022/04/24 03:21:34;;;;;;;10.02;6.95;;;8.10;99.90;;;;;;5091340;28;20036;-61
2022/04/24 03:24:00;;;;;;;11.18;7.88;;;8.00;99.90;;;;;;5092855;28;20393;-61
2022/04/24 03:26:26;;;;;;;14.23;8.23;;;8.40;99.90;;;;;;5091315;28;20481;-61
2022/04/24 03:28:51;;;;;;;11.05;7.57;;;7.80;99.90;;;;;;5090686;28;20054;-61
2022/04/24 03:31:17;;;;;;;12.15;7.97;;;8.30;99.90;;;;;;5091248;28;20039;-61
2022/04/24 03:33:43;;;;;;;10.77;6.85;;;7.80;99.90;;;;;;5092876;28;20040;-61
2022/04/24 03:36:09;;;;;;;10.95;7.07;;;7.90;99.90;;;;;;5090533;28;20052;-61
2022/04/24 03:38:35;;;;;;;12.02;7.60;;;7.90;99.90;;;;;;5091079;28;20122;-61
2022/04/24 03:41:01;;;;;;;11.60;6.85;;;8.10;99.90;;;;;;5091423;28;20492;-61
2022/04/24 03:43:27;;;;;;;9.77;6.32;;;8.80;99.90;;;;;;5090096;28;20093;-61
2022/04/24 03:45:53;;;;;;;11.05;6.70;;;8.10;99.90;;;;;;5091184;28;20079;-61
2022/04/24 03:48:18;;;;;;;13.43;6.13;;;7.80;99.90;;;;;;5092041;28;20078;-61
2022/04/24 03:50:44;;;;;;;9.88;6.78;;;8.30;99.90;;;;;;5091354;28;20491;-61
2022/04/24 03:53:10;;;;;;;9.90;6.65;;;7.90;99.90;;;;;;5092182;28;20040;-61
2022/04/24 03:55:35;;;;;;;13.38;7.32;;;8.30;99.90;;;;;;5092107;28;20038;-61
2022/04/24 03:58:01;;;;;;;11.00;7.53;;;8.20;99.90;;;;;;5091598;28;20129;-61
2022/04/24 04:00:27;;;;;;;10.52;6.63;;;8.10;99.90;;;;;;5092276;28;20047;-61
2022/04/24 04:02:53;;;;;;;14.10;7.70;;;8.40;99.90;;;;;;5091698;28;20097;-61
2022/04/24 04:05:20;;;;;;;8.75;6.10;;;8.10;99.90;;;;;;5091275;28;20047;-61
2022/04/24 04:07:46;;;;;;;14.77;7.57;;;8.20;99.90;;;;;;5091955;28;20047;-61
2022/04/24 04:10:12;;;;;;;12.75;7.20;;;8.00;99.90;;;;;;5091862;28;20056;-61
2022/04/24 04:12:38;;;;;;;10.52;6.90;;;7.70;99.90;;;;;;5089686;28;20063;-61
2022/04/24 04:15:05;;;;;;;10.15;6.60;;;7.70;99.90;;;;;;5090948;28;20068;-61
2022/04/24 04:17:32;;;;;;;11.98;6.90;;;;;;;;;;5091134;28;20050;-60
2022/04/24 04:19:59;;;;;;;12.77;7.22;;;7.80;99.90;;;;;;5094400;28;20079;-61
2022/04/24 04:22:25;;;;;;;10.18;6.07;;;8.30;99.90;;;;;;5095669;28;20122;-61
2022/04/24 04:24:51;;;;;;;11.68;7.25;;;8.30;99.90;;;;;;5095151;28;20090;-61
2022/04/24 04:27:17;;;;;;;9.45;5.90;;;8.10;99.90;;;;;;5095586;28;20155;-61
2022/04/24 04:29:43;;;;;;;11.75;6.32;;;8.10;99.90;;;;;;5095719;28;20056;-61
2022/04/24 04:32:09;;;;;;;10.82;6.60;;;8.10;99.90;;;;;;5095096;28;20036;-60
2022/04/24 04:34:34;;;;;;;10.00;6.38;;;8.20;99.90;;;;;;5095401;28;20374;-61
2022/04/24 04:37:00;;;;;;;11.07;6.47;;;8.00;99.90;;;;;;5094867;28;20553;-61
2022/04/24 04:39:26;;;;;;;10.18;6.22;;;8.60;99.90;;;;;;5093352;28;20162;-61
2022/04/24 04:41:51;;;;;;;13.50;7.28;;;7.80;99.90;;;;;;5095656;28;20047;-61
2022/04/24 04:44:17;;;;;;;10.15;6.32;;;7.70;99.90;;;;;;5095353;28;20038;-61
2022/04/24 04:46:43;;;;;;;10.18;6.20;;;8.20;99.90;;;;;;5093726;28;20051;-61
2022/04/24 04:49:09;;;;;;;11.52;6.05;;;8.20;99.90;;;;;;5094170;28;20042;-61
2022/04/24 04:51:34;;;;;;;10.38;6.60;;;7.70;99.90;;;;;;5093913;28;20036;-61
2022/04/24 04:54:00;;;;;;;13.32;6.85;;;8.10;99.90;;;;;;5092950;28;20059;-61
2022/04/24 04:56:26;;;;;;;11.43;6.18;;;8.20;99.90;;;;;;5094167;28;20089;-61
2022/04/24 04:58:52;;;;;;;10.57;6.75;;;8.20;99.90;;;;;;5095778;28;20036;-61
2022/04/24 05:01:17;;;;;;;12.73;6.80;;;8.10;99.90;;;;;;5094277;28;20036;-61
2022/04/24 05:03:43;;;;;;;8.65;5.25;;;8.30;99.90;;;;;;5095317;28;20036;-61
2022/04/24 05:06:09;;;;;;;11.75;6.45;;;8.10;99.90;;;;;;5095128;28;20620;-61
2022/04/24 05:08:35;;;;;;;9.23;5.53;;;7.80;99.90;;;;;;5093493;28;20044;-61
2022/04/24 05:11:01;;;;;;;10.20;6.47;;;7.70;99.90;;;;;;5094308;28;20043;-61
2022/04/24 05:13:27;;;;;;;10.73;6.57;;;8.60;99.90;;;;;;5093661;28;20088;-61
2022/04/24 05:15:54;;;;;;;10.68;6.55;;;8.10;99.90;;;;;;5093016;28;20044;-61
2022/04/24 05:18:19;;;;;;;9.90;6.88;;;8.40;99.90;;;;;;5094491;28;20043;-61
2022/04/24 05:20:45;;;;;;;12.82;7.00;;;8.40;99.90;;;;;;5095337;28;20377;-61
2022/04/24 05:23:11;;;;;;;10.48;6.65;;;8.30;99.90;;;;;;5092836;28;20527;-61
2022/04/24 05:25:37;;;;;;;14.30;6.47;;;8.30;99.90;;;;;;5095086;28;20040;-61
2022/04/24 05:28:04;;;;;;;12.05;7.45;;;8.10;99.90;;;;;;5093001;28;20044;-61
2022/04/24 05:30:30;;;;;;;12.68;6.80;;;;;;;;;;5093346;28;20039;-61
2022/04/24 05:32:56;;;;;;;12.00;6.63;;;8.30;99.90;;;;;;5093575;28;20036;-61
2022/04/24 05:35:22;;;;;;;15.20;10.43;;;8.30;99.90;;;;;;5092443;28;20040;-61
2022/04/24 05:37:48;;;;;;;25.35;16.27;;;8.60;99.90;;;;;;5094388;28;20040;-61
2022/04/24 05:40:15;;;;;;;33.78;22.33;;;8.60;99.90;;;;;;5094374;28;20044;-61
2022/04/24 05:42:49;;;;;;;12.98;8.30;;;8.60;99.90;;;;;;5093341;28;20043;-61
2022/04/24 05:45:18;;;;;;;13.90;7.90;;;8.40;99.90;;;;;;5084624;28;20115;-61
2022/04/24 05:47:44;;;;;;;14.93;7.43;;;8.60;99.90;;;;;;5094210;28;20040;-61
2022/04/24 05:50:10;;;;;;;13.25;7.35;;;8.70;99.90;;;;;;5094062;28;20059;-61
2022/04/24 05:52:36;;;;;;;12.65;7.32;;;8.60;99.90;;;;;;5109123;28;20362;-61
2022/04/24 05:55:01;;;;;;;12.88;7.90;;;9.10;99.90;;;;;;5093175;28;20048;-61
2022/04/24 05:57:27;;;;;;;11.93;6.93;;;8.90;99.90;;;;;;5093117;28;20075;-61
2022/04/24 05:59:52;;;;;;;12.98;7.25;;;8.90;99.90;;;;;;5093135;28;20055;-61
2022/04/24 06:02:18;;;;;;;10.23;6.60;;;8.80;99.90;;;;;;5092534;28;20093;-61
2022/04/24 06:04:44;;;;;;;11.85;7.30;;;9.10;99.90;;;;;;5092606;28;20036;-61
2022/04/24 06:07:10;;;;;;;14.57;7.40;;;8.90;99.90;;;;;;5093903;28;20079;-61
2022/04/24 06:09:36;;;;;;;9.70;6.07;;;9.40;99.90;;;;;;5093342;28;20056;-61
2022/04/24 06:12:02;;;;;;;14.23;6.53;;;8.80;99.90;;;;;;5072906;28;20048;-61
2022/04/24 06:14:28;;;;;;;11.05;6.30;;;8.90;99.90;;;;;;5072283;28;20166;-61
2022/04/24 06:16:54;;;;;;;14.60;6.90;;;9.40;99.90;;;;;;5074237;28;20486;-62
2022/04/24 06:19:20;;;;;;;11.18;7.00;;;;;;;;;;5092902;28;20032;-61
2022/04/24 06:21:46;;;;;;;11.02;5.88;;;9.40;99.90;;;;;;5092512;28;20048;-61
2022/04/24 06:24:12;;;;;;;8.73;5.63;;;9.60;99.90;;;;;;5093267;28;20051;-61
2022/04/24 06:26:39;;;;;;;10.00;5.68;;;;;;;;;;5091763;28;20036;-61
2022/04/24 06:29:05;;;;;;;9.10;5.20;;;9.90;99.90;;;;;;5091468;28;20396;-61
2022/04/24 06:31:31;;;;;;;8.63;5.13;;;9.50;99.90;;;;;;5090822;28;20087;-61
2022/04/24 06:33:56;;;;;;;9.13;5.63;;;9.80;99.90;;;;;;5093860;28;20035;-61
2022/04/24 06:36:22;;;;;;;9.05;5.25;;;;;;;;;;5093064;28;20462;-61
2022/04/24 06:38:48;;;;;;;9.63;5.60;;;9.90;99.90;;;;;;5091437;28;20048;-61
2022/04/24 06:41:14;;;;;;;10.60;4.32;;;;;;;;;;5093112;28;20350;-61
2022/04/24 06:43:39;;;;;;;9.73;4.47;;;9.80;99.90;;;;;;5093240;28;20078;-61
2022/04/24 06:46:05;;;;;;;10.40;4.35;;;10.10;99.90;;;;;;5091371;28;20457;-61
2022/04/24 06:48:30;;;;;;;6.13;3.53;;;10.50;99.90;;;;;;5091764;28;20164;-61
2022/04/24 06:50:56;;;;;;;9.63;4.57;;;10.50;99.90;;;;;;5092281;28;20122;-62
2022/04/24 06:53:23;;;;;;;7.07;3.78;;;10.60;99.90;;;;;;5092397;28;20043;-61
2022/04/24 06:55:50;;;;;;;6.40;3.50;;;10.50;99.90;;;;;;5075334;28;20127;-61
2022/04/24 06:58:18;;;;;;;7.60;3.30;;;10.60;99.90;;;;;;5092836;28;20427;-61
2022/04/24 07:00:45;;;;;;;7.03;3.88;;;10.90;99.90;;;;;;5091035;28;20051;-61
2022/04/24 07:03:12;;;;;;;7.50;3.30;;;10.90;99.90;;;;;;5092008;28;20047;-61
2022/04/24 07:05:39;;;;;;;6.60;3.25;;;10.80;99.90;;;;;;5091683;28;20040;-61
2022/04/24 07:08:05;;;;;;;6.82;2.88;;;11.40;99.90;;;;;;5091017;28;20071;-61
2022/04/24 07:10:31;;;;;;;8.05;3.28;;;10.80;99.90;;;;;;5089902;28;20068;-60
2022/04/24 07:12:56;;;;;;;7.07;2.97;;;11.40;99.90;;;;;;5089873;28;20077;-61
2022/04/24 07:15:23;;;;;;;6.70;2.88;;;11.00;99.90;;;;;;5082444;28;20048;-61
2022/04/24 07:17:50;;;;;;;6.25;2.47;;;8.50;99.90;;;;;;5088611;28;20052;-59
2022/04/24 07:20:17;;;;;;;6.65;2.75;;;11.10;99.90;;;;;;5081799;28;20044;-60
2022/04/24 07:22:52;;;;;;;7.70;2.80;;;11.10;99.90;;;;;;5089460;28;20501;-60
2022/04/24 07:25:22;;;;;;;5.70;2.43;;;11.50;99.90;;;;;;5089159;28;20040;-60
2022/04/24 07:27:48;;;;;;;4.65;2.40;;;11.50;99.90;;;;;;5087577;28;20294;-60
2022/04/24 07:30:15;;;;;;;10.45;3.40;;;11.40;99.90;;;;;;5088712;28;20051;-60
2022/04/24 07:32:41;;;;;;;5.55;2.17;;;11.40;99.90;;;;;;5087975;28;20044;-61
2022/04/24 07:35:12;;;;;;;5.13;2.60;;;11.90;99.90;;;;;;5087355;28;20044;-61
2022/04/24 07:37:38;;;;;;;8.00;2.55;;;11.80;99.90;;;;;;5089030;28;20139;-61
2022/04/24 07:40:08;;;;;;;7.80;2.58;;;11.60;99.90;;;;;;5089826;28;20114;-60
2022/04/24 07:42:49;;;;;;;6.93;2.80;;;11.60;99.90;;;;;;5088680;28;20047;-60
2022/04/24 07:45:24;;;;;;;8.13;2.40;;;11.90;99.90;;;;;;5087774;28;20519;-60
2022/04/24 07:47:51;;;;;;;7.47;3.25;;;12.00;99.90;;;;;;5088505;28;20040;-61
2022/04/24 07:50:19;;;;;;;7.72;2.83;;;12.40;99.90;;;;;;5070191;28;20054;-61
2022/04/24 07:52:46;;;;;;;5.68;2.35;;;12.00;99.90;;;;;;5089363;28;20090;-61
2022/04/24 07:55:13;;;;;;;4.63;2.10;;;;;;;;;;5089211;28;20130;-61
2022/04/24 07:57:40;;;;;;;6.95;1.85;;;11.90;99.90;;;;;;5088603;28;20464;-61
2022/04/24 08:00:10;;;;;;;5.40;2.33;;;13.30;99.90;;;;;;5088071;28;20048;-61
2022/04/24 08:02:54;;;;;;;8.63;2.60;;;;;;;;;;5089078;28;20108;-61
2022/04/24 08:05:25;;;;;;;5.55;2.58;;;12.40;99.90;;;;;;5085834;28;20044;-61
2022/04/24 08:07:51;;;;;;;5.53;2.40;;;12.30;99.90;;;;;;5082857;28;20488;-60
2022/04/24 08:10:17;;;;;;;5.05;2.30;;;12.50;99.90;;;;;;5086819;28;20097;-61
2022/04/24 08:12:43;;;;;;;5.05;1.95;;;13.10;99.90;;;;;;5088973;28;20505;-60
2022/04/24 08:15:09;;;;;;;6.72;2.85;;;12.50;99.90;;;;;;5088757;28;20050;-60
2022/04/24 08:17:35;;;;;;;6.63;2.75;;;;;;;;;;5068794;28;20059;-61
2022/04/24 08:20:02;;;;;;;7.60;3.30;;;;;;;;;;5086850;28;20048;-61
2022/04/24 08:22:36;;;;;;;5.30;2.28;;;;;;;;;;5088904;28;20101;-61
2022/04/24 08:25:02;;;;;;;7.28;2.72;;;;;;;;;;5087255;28;20051;-61
2022/04/24 08:27:28;;;;;;;6.68;2.53;;;;;;;;;;5087028;28;20051;-61
2022/04/24 08:29:54;;;;;;;5.18;2.38;;;;;;;;;;5088658;28;20048;-61
2022/04/24 08:32:21;;;;;;;6.70;2.30;;;;;;;;;;5086826;28;20075;-60
2022/04/24 08:34:47;;;;;;;6.10;2.90;;;;;;;;;;5087389;28;20497;-60
2022/04/24 08:37:13;;;;;;;6.43;2.80;;;13.20;99.90;;;;;;5088815;28;20091;-60
2022/04/24 08:39:38;;;;;;;9.57;3.15;;;13.00;99.90;;;;;;5088336;28;20477;-60
2022/04/24 08:42:07;;;;;;;6.82;2.63;;;13.20;99.90;;;;;;5089178;28;20044;-60
2022/04/24 08:44:34;;;;;;;5.07;2.63;;;13.00;99.90;;;;;;5086781;28;20488;-60
2022/04/24 08:47:00;;;;;;;5.72;2.75;;;;;;;;;;5087961;28;20040;-60
2022/04/24 08:49:30;;;;;;;5.20;2.72;;;13.20;99.90;;;;;;5088493;28;20504;-60
2022/04/24 08:51:58;;;;;;;7.32;3.45;;;13.30;99.90;;;;;;5087895;28;20518;-60
2022/04/24 08:54:27;;;;;;;7.45;2.83;;;13.30;99.90;;;;;;5086602;28;20047;-60
2022/04/24 08:56:56;;;;;;;5.55;2.47;;;;;;;;;;5088424;28;20058;-60
2022/04/24 08:59:22;;;;;;;6.40;3.30;;;13.30;99.90;;;;;;5086641;28;20105;-60
2022/04/24 09:01:50;;;;;;;7.22;3.20;;;13.50;99.90;;;;;;5088788;28;20602;-60
2022/04/24 09:04:16;;;;;;;6.13;3.00;;;13.20;99.90;;;;;;5090394;28;20083;-60
2022/04/24 09:06:42;;;;;;;7.05;3.28;;;13.70;99.90;;;;;;5091434;28;20032;-60
2022/04/24 09:09:08;;;;;;;9.57;3.53;;;13.40;99.90;;;;;;5091948;28;20060;-60
2022/04/24 09:11:34;;;;;;;6.40;3.30;;;13.90;99.90;;;;;;5073646;28;20048;-60
2022/04/24 09:14:15;;;;;;;5.88;2.75;;;;;;;;;;5090798;28;20036;-60
2022/04/24 09:16:51;;;;;;;8.52;4.22;;;13.80;99.90;;;;;;5087957;28;20044;-60
2022/04/24 09:19:22;;;;;;;7.35;3.33;;;13.70;99.90;;;;;;5091009;28;20131;-60
2022/04/24 09:21:49;;;;;;;6.65;3.60;;;13.70;99.90;;;;;;5088124;28;20123;-60
2022/04/24 09:24:15;;;;;;;6.57;3.30;;;;;;;;;;5091779;28;20050;-60
2022/04/24 09:26:57;;;;;;;6.60;3.30;;;13.50;99.90;;;;;;5090168;28;20071;-60
2022/04/24 09:29:23;;;;;;;9.23;3.40;;;13.30;99.90;;;;;;5090666;28;20109;-60
2022/04/24 09:31:50;;;;;;;8.93;3.63;;;13.70;99.90;;;;;;5073122;28;20493;-60
2022/04/24 09:34:20;;;;;;;5.88;2.83;;;13.70;99.90;;;;;;5091053;28;20032;-60
2022/04/24 09:36:47;;;;;;;5.75;2.60;;;13.60;99.90;;;;;;5091283;28;20075;-60
2022/04/24 09:39:13;;;;;;;7.00;2.88;;;13.40;99.90;;;;;;5086975;28;20533;-60
2022/04/24 09:41:39;;;;;;;5.97;3.03;;;14.00;99.90;;;;;;5090411;28;20479;-60
2022/04/24 09:44:15;;;;;;;6.43;3.35;;;13.60;99.90;;;;;;5084635;28;20055;-60
2022/04/24 09:46:41;;;;;;;7.18;3.15;;;13.60;99.90;;;;;;5071698;28;20052;-60
2022/04/24 09:49:10;;;;;;;7.55;3.38;;;13.60;99.90;;;;;;5089763;28;20040;-60
2022/04/24 09:51:41;;;;;;;8.70;4.03;;;13.60;99.90;;;;;;5089892;28;20100;-60
2022/04/24 09:54:07;;;;;;;10.35;3.15;;;13.80;99.90;;;;;;5083957;28;20062;-60
2022/04/24 09:56:33;;;;;;;6.68;3.00;;;13.60;99.90;;;;;;5088692;28;20488;-60
2022/04/24 09:58:59;;;;;;;8.25;3.38;;;13.50;99.90;;;;;;5090974;28;20039;-60
2022/04/24 10:01:29;;;;;;;6.88;3.17;;;13.80;99.90;;;;;;5091196;28;20043;-60
2022/04/24 10:03:55;;;;;;;8.25;3.13;;;13.90;99.90;;;;;;5089476;28;20052;-61
2022/04/24 10:06:22;;;;;;;7.72;3.30;;;13.50;99.90;;;;;;5077990;28;20079;-60
2022/04/24 10:08:49;;;;;;;6.97;3.40;;;13.50;99.90;;;;;;5070515;28;20671;-60
2022/04/24 10:11:16;;;;;;;7.68;3.22;;;;;;;;;;5069274;28;20079;-60
2022/04/24 10:13:45;;;;;;;8.13;2.95;;;14.20;99.90;;;;;;5088561;28;20590;-60
2022/04/24 10:16:37;;;;;;;8.15;3.38;;;13.70;99.90;;;;;;5086880;28;20043;-60
2022/04/24 10:19:03;;;;;;;7.75;3.10;;;;;;;;;;5087765;28;20479;-61
2022/04/24 10:22:03;;;;;;;5.65;2.60;;;13.30;99.90;;;;;;5087280;28;20052;-60
2022/04/24 10:24:41;;;;;;;6.07;3.33;;;13.50;99.90;;;;;;5088461;28;20109;-60
2022/04/24 10:27:07;;;;;;;6.97;3.13;;;;;;;;;;5090674;28;20040;-60
2022/04/24 10:29:34;;;;;;;8.95;3.25;;;;;;;;;;5088606;28;20500;-60
2022/04/24 10:31:59;;;;;;;7.75;3.05;;;13.80;99.90;;;;;;5089836;28;20048;-60
2022/04/24 10:34:26;;;;;;;8.82;3.05;;;;;;;;;;5106302;28;20111;-60
2022/04/24 10:36:56;;;;;;;6.68;3.30;;;14.00;99.90;;;;;;5088080;28;20048;-60
2022/04/24 10:39:24;;;;;;;6.47;3.30;;;14.00;99.90;;;;;;5089641;28;20063;-60
2022/04/24 10:41:55;;;;;;;9.30;3.08;;;13.20;99.90;;;;;;5088740;28;20126;-60
2022/04/24 10:44:22;;;;;;;7.35;3.85;;;14.00;99.90;;;;;;5090064;28;20489;-60
2022/04/24 10:46:49;;;;;;;6.68;3.08;;;13.80;99.90;;;;;;5089681;28;20048;-60
2022/04/24 10:49:18;;;;;;;8.38;3.55;;;13.90;99.90;;;;;;5088879;28;20510;-60
2022/04/24 10:52:01;;;;;;;5.82;2.75;;;13.70;99.90;;;;;;5087966;28;20055;-61
2022/04/24 10:54:32;;;;;;;9.27;2.92;;;13.50;99.90;;;;;;5088909;28;20044;-61
2022/04/24 10:56:59;;;;;;;6.65;2.95;;;;;;;;;;5088829;28;20459;-61
2022/04/24 10:59:26;;;;;;;5.28;3.15;;;;;;;;;;5087988;28;20056;-61
2022/04/24 11:01:55;;;;;;;6.22;2.47;;;13.70;99.90;;;;;;5088551;28;20047;-60
2022/04/24 11:04:22;;;;;;;6.45;2.95;;;13.90;99.90;;;;;;5088952;28;20487;-61
2022/04/24 11:07:04;;;;;;;8.55;3.63;;;13.90;99.90;;;;;;5088080;28;20066;-61
2022/04/24 11:09:35;;;;;;;6.82;3.13;;;13.90;99.90;;;;;;5071102;28;20084;-61
2022/04/24 11:12:06;;;;;;;7.30;2.95;;;13.40;99.90;;;;;;5089187;28;20500;-61
2022/04/24 11:14:34;;;;;;;7.65;3.25;;;13.50;99.90;;;;;;5087304;28;20534;-61
2022/04/24 11:17:01;;;;;;;8.80;3.53;;;13.80;99.90;;;;;;5090084;28;20047;-61
2022/04/24 11:19:29;;;;;;;6.55;3.35;;;13.90;99.90;;;;;;5086481;28;20086;-61
2022/04/24 11:21:59;;;;;;;6.82;2.78;;;13.90;99.90;;;;;;5087820;28;20040;-61
2022/04/24 11:24:32;;;;;;;7.40;4.05;;;13.40;99.90;;;;;;5088469;28;20044;-61
2022/04/24 11:27:02;;;;;;;8.60;3.70;;;14.10;99.90;;;;;;5088424;28;20052;-61
2022/04/24 11:29:27;;;;;;;7.97;3.55;;;14.10;99.90;;;;;;5089312;28;20051;-61
2022/04/24 11:31:54;;;;;;;7.97;3.38;;;13.60;99.90;;;;;;5088220;28;20032;-60
2022/04/24 11:34:22;;;;;;;9.60;4.10;;;12.90;99.90;;;;;;5087737;28;20071;-61
2022/04/24 11:36:49;;;;;;;8.52;3.75;;;14.00;99.90;;;;;;5087479;28;20054;-61
2022/04/24 11:39:17;;;;;;;7.10;3.63;;;14.00;99.90;;;;;;5089516;28;20560;-61
2022/04/24 11:41:43;;;;;;;9.40;3.92;;;;;;;;;;5080878;28;20497;-61
2022/04/24 11:52:28;;;;;;;14.90;4.85;;;;;;;;;;5086826;28;20043;-61
2022/04/24 11:54:55;;;;;;;8.32;4.30;;;13.50;99.90;;;;;;5087891;28;20044;-61
2022/04/24 11:57:20;;;;;;;7.95;4.47;;;13.30;99.90;;;;;;5087447;28;20519;-61
2022/04/24 11:59:54;;;;;;;8.90;3.67;;;13.90;99.90;;;;;;5089306;28;20068;-61
2022/04/24 12:02:27;;;;;;;11.65;4.60;;;13.70;99.90;;;;;;5086344;28;20047;-61
2022/04/24 12:04:53;;;;;;;10.98;4.18;;;;;;;;;;5088745;28;20040;-61
2022/04/24 12:07:19;;;;;;;12.23;4.45;;;13.50;99.90;;;;;;5088908;28;20456;-61
2022/04/24 12:09:45;;;;;;;12.73;4.95;;;13.90;99.90;;;;;;5070573;28;20040;-61
2022/04/24 12:12:16;;;;;;;8.88;4.10;;;13.70;99.90;;;;;;5089259;28;20472;-61
2022/04/24 12:14:48;;;;;;;9.48;4.70;;;14.10;99.90;;;;;;5088975;28;20032;-61
2022/04/24 12:17:14;;;;;;;8.88;4.85;;;;;;;;;;5087404;28;20097;-61
2022/04/24 12:19:48;;;;;;;10.07;5.30;;;14.00;99.90;;;;;;5084953;28;20126;-61
2022/04/24 12:22:14;;;;;;;9.02;4.60;;;;;;;;;;5088027;28;20056;-61
2022/04/24 12:24:45;;;;;;;11.15;5.35;;;13.80;99.90;;;;;;5086864;28;20545;-61
2022/04/24 12:27:14;;;;;;;9.98;4.82;;;13.90;99.90;;;;;;5089145;28;20105;-61
2022/04/24 12:29:49;;;;;;;17.23;5.90;;;13.40;99.90;;;;;;5089084;28;20399;-61
2022/04/24 12:32:18;;;;;;;7.72;4.60;;;13.70;99.90;;;;;;5086967;28;20044;-61
2022/04/24 12:34:46;;;;;;;9.10;4.60;;;13.80;99.90;;;;;;5088070;28;20477;-61
2022/04/24 12:37:13;;;;;;;7.88;4.68;;;13.70;99.90;;;;;;5087401;28;20067;-61
2022/04/24 12:39:39;;;;;;;10.10;4.70;;;14.30;99.90;;;;;;5089885;28;20586;-61
2022/04/24 12:42:14;;;;;;;12.27;5.00;;;13.70;99.90;;;;;;5093081;28;20043;-61
2022/04/24 12:44:40;;;;;;;8.68;4.82;;;;;;;;;;5090003;28;20404;-61
2022/04/24 12:47:06;;;;;;;8.48;4.03;;;13.80;99.90;;;;;;5093005;28;20044;-61
2022/04/24 12:49:32;;;;;;;6.35;4.00;;;;;;;;;;5108093;28;20082;-61
2022/04/24 12:51:58;;;;;;;9.73;4.53;;;;;;;;;;5073894;28;20055;-61
2022/04/24 12:54:24;;;;;;;10.73;4.15;;;13.60;99.90;;;;;;5092332;28;20515;-61
2022/04/24 12:56:51;;;;;;;9.10;4.65;;;13.50;99.90;;;;;;5092474;28;20051;-61
2022/04/24 12:59:17;;;;;;;10.30;4.13;;;;;;;;;;5090681;28;20128;-61
2022/04/24 13:01:45;;;;;;;7.05;4.35;;;;;;;;;;5092197;28;20064;-61
2022/04/24 13:04:11;;;;;;;7.75;4.13;;;;;;;;;;5092692;28;20048;-61
2022/04/24 13:06:37;;;;;;;6.57;3.58;;;13.50;99.90;;;;;;5091383;28;20104;-61
2022/04/24 13:09:10;;;;;;;9.80;4.30;;;13.70;99.90;;;;;;5091473;28;20100;-61